createdAt,value
2018-05-11T00:00:04.078Z,14.625
2018-05-11T00:01:04.207Z,14.625
2018-05-11T00:02:03.425Z,14.625
2018-05-11T00:03:03.712Z,14.625
2018-05-11T00:04:04.222Z,14.625
2018-05-11T00:05:04.119Z,14.562
2018-05-11T00:06:04.746Z,14.562
2018-05-11T00:07:03.879Z,14.562
2018-05-11T00:08:03.622Z,14.562
2018-05-11T00:09:04.357Z,14.625
2018-05-11T00:10:03.869Z,14.562
2018-05-11T00:11:03.442Z,14.562
2018-05-11T00:12:03.964Z,14.562
2018-05-11T00:13:04.050Z,14.562
2018-05-11T00:14:03.512Z,14.5
2018-05-11T00:15:03.975Z,14.5
2018-05-11T00:16:04.798Z,14.5
2018-05-11T00:17:04.331Z,14.437
2018-05-11T00:18:03.744Z,14.437
2018-05-11T00:19:03.426Z,14.375
2018-05-11T00:20:04.045Z,14.375
2018-05-11T00:21:03.612Z,14.312
2018-05-11T00:22:04.142Z,14.312
2018-05-11T00:23:03.546Z,14.312
2018-05-11T00:24:04.069Z,14.25
2018-05-11T00:25:03.657Z,14.25
2018-05-11T00:26:04.244Z,14.25
2018-05-11T00:27:03.719Z,14.25
2018-05-11T00:28:04.006Z,14.25
2018-05-11T00:29:03.326Z,14.187
2018-05-11T00:30:04.035Z,14.187
2018-05-11T00:31:05.786Z,14.125
2018-05-11T00:32:04.480Z,14.125
2018-05-11T00:33:04.330Z,14.187
2018-05-11T00:34:04.110Z,14.125
2018-05-11T00:35:03.470Z,14.125
2018-05-11T00:36:03.926Z,14.125
2018-05-11T00:37:04.181Z,14.125
2018-05-11T00:38:04.013Z,14.062
2018-05-11T00:39:03.989Z,14.062
2018-05-11T00:40:04.862Z,14.062
2018-05-11T00:41:03.673Z,14.062
2018-05-11T00:42:04.081Z,14.062
2018-05-11T00:43:03.471Z,14
2018-05-11T00:44:03.857Z,14
2018-05-11T00:45:03.655Z,14
2018-05-11T00:46:04.303Z,14
2018-05-11T00:47:03.601Z,14
2018-05-11T00:48:04.090Z,14
2018-05-11T00:49:04.114Z,13.937
2018-05-11T00:50:03.913Z,13.937
2018-05-11T00:51:04.363Z,13.937
2018-05-11T00:52:03.784Z,13.937
2018-05-11T00:53:03.886Z,13.875
2018-05-11T00:54:04.046Z,13.875
2018-05-11T00:55:03.477Z,13.812
2018-05-11T00:56:04.017Z,13.812
2018-05-11T00:57:03.280Z,13.812
2018-05-11T00:58:03.520Z,13.812
2018-05-11T00:59:03.432Z,13.812
2018-05-11T01:00:04.136Z,13.812
2018-05-11T01:01:05.006Z,13.812
2018-05-11T01:02:03.428Z,13.812
2018-05-11T01:03:03.820Z,13.812
2018-05-11T01:04:03.387Z,13.812
2018-05-11T01:05:03.890Z,13.812
2018-05-11T01:06:03.865Z,13.812
2018-05-11T01:07:03.507Z,13.75
2018-05-11T01:08:03.718Z,13.75
2018-05-11T01:09:04.631Z,13.75
2018-05-11T01:10:03.904Z,13.75
2018-05-11T01:12:03.239Z,13.75
2018-05-11T01:13:03.646Z,13.75
2018-05-11T01:14:04.207Z,13.75
2018-05-11T01:15:03.752Z,13.75
2018-05-11T01:16:04.095Z,13.75
2018-05-11T01:17:03.684Z,13.75
2018-05-11T01:18:03.988Z,13.75
2018-05-11T01:19:03.474Z,13.75
2018-05-11T01:20:03.678Z,13.75
2018-05-11T01:21:04.288Z,13.687
2018-05-11T01:22:03.829Z,13.75
2018-05-11T01:23:03.503Z,13.75
2018-05-11T01:24:03.666Z,13.687
2018-05-11T01:25:04.152Z,13.75
2018-05-11T01:26:03.581Z,13.75
2018-05-11T01:27:03.607Z,13.75
2018-05-11T01:28:04.110Z,13.687
2018-05-11T01:29:03.505Z,13.75
2018-05-11T01:30:04.313Z,13.75
2018-05-11T01:31:04.564Z,13.687
2018-05-11T01:32:03.521Z,13.687
2018-05-11T01:33:03.887Z,13.687
2018-05-11T01:34:03.512Z,13.625
2018-05-11T01:35:04.001Z,13.625
2018-05-11T01:36:03.296Z,13.625
2018-05-11T01:37:04.255Z,13.625
2018-05-11T01:38:03.781Z,13.625
2018-05-11T01:39:04.513Z,13.562
2018-05-11T01:40:04.120Z,13.625
2018-05-11T01:41:04.128Z,13.562
2018-05-11T01:42:03.331Z,13.562
2018-05-11T01:43:03.868Z,13.562
2018-05-11T01:44:04.245Z,13.562
2018-05-11T01:45:03.978Z,13.562
2018-05-11T01:46:05.549Z,13.562
2018-05-11T01:47:03.827Z,13.562
2018-05-11T01:48:03.275Z,13.562
2018-05-11T01:49:03.469Z,13.562
2018-05-11T01:50:03.811Z,13.562
2018-05-11T01:51:03.256Z,13.5
2018-05-11T01:52:03.668Z,13.562
2018-05-11T01:53:03.837Z,13.5
2018-05-11T01:54:03.736Z,13.5
2018-05-11T01:55:04.221Z,13.5
2018-05-11T01:56:03.741Z,13.5
2018-05-11T01:57:03.548Z,13.562
2018-05-11T01:58:03.900Z,13.5
2018-05-11T01:59:03.466Z,13.5
2018-05-11T02:00:03.997Z,13.5
2018-05-11T02:01:03.731Z,13.5
2018-05-11T02:02:04.286Z,13.5
2018-05-11T02:03:03.681Z,13.5
2018-05-11T02:04:04.240Z,13.5
2018-05-11T02:05:04.168Z,13.5
2018-05-11T02:06:04.578Z,13.437
2018-05-11T02:07:03.874Z,13.437
2018-05-11T02:08:03.359Z,13.437
2018-05-11T02:09:04.785Z,13.437
2018-05-11T02:10:04.060Z,13.437
2018-05-11T02:11:03.598Z,13.437
2018-05-11T02:12:04.038Z,13.437
2018-05-11T02:13:03.903Z,13.437
2018-05-11T02:14:03.513Z,13.375
2018-05-11T02:15:03.970Z,13.375
2018-05-11T02:16:04.292Z,13.375
2018-05-11T02:17:03.675Z,13.312
2018-05-11T02:18:04.011Z,13.312
2018-05-11T02:19:03.546Z,13.375
2018-05-11T02:20:04.472Z,13.312
2018-05-11T02:21:03.819Z,13.312
2018-05-11T02:22:03.285Z,13.312
2018-05-11T02:23:03.741Z,13.312
2018-05-11T02:24:03.460Z,13.25
2018-05-11T02:25:03.790Z,13.312
2018-05-11T02:26:04.292Z,13.25
2018-05-11T02:27:03.546Z,13.25
2018-05-11T02:28:04.024Z,13.25
2018-05-11T02:29:03.450Z,13.25
2018-05-11T02:30:04.263Z,13.187
2018-05-11T02:31:04.080Z,13.187
2018-05-11T02:32:03.887Z,13.125
2018-05-11T02:33:03.548Z,13.187
2018-05-11T02:34:03.985Z,13.187
2018-05-11T02:35:03.394Z,13.187
2018-05-11T02:36:04.178Z,13.125
2018-05-11T02:37:03.650Z,13.187
2018-05-11T02:38:04.237Z,13.187
2018-05-11T02:39:04.404Z,13.125
2018-05-11T02:40:03.813Z,13.125
2018-05-11T02:41:05.565Z,13.125
2018-05-11T02:42:03.853Z,13.125
2018-05-11T02:43:03.340Z,13.062
2018-05-11T02:44:03.947Z,13.062
2018-05-11T02:45:04.236Z,13.062
2018-05-11T02:46:03.771Z,13.062
2018-05-11T02:47:04.200Z,13.062
2018-05-11T02:48:03.798Z,13.125
2018-05-11T02:49:03.397Z,13.062
2018-05-11T02:50:03.591Z,13.062
2018-05-11T02:51:05.084Z,13.062
2018-05-11T02:52:03.541Z,13.062
2018-05-11T02:53:04.302Z,13.062
2018-05-11T02:54:03.557Z,13.062
2018-05-11T02:55:03.917Z,13.062
2018-05-11T02:56:03.461Z,13.062
2018-05-11T02:57:03.567Z,13
2018-05-11T02:58:04.189Z,13.062
2018-05-11T02:59:03.331Z,13
2018-05-11T03:00:04.196Z,13
2018-05-11T03:01:04.066Z,13.062
2018-05-11T03:02:04.204Z,13
2018-05-11T03:03:03.734Z,13
2018-05-11T03:04:04.251Z,13
2018-05-11T03:05:03.906Z,13
2018-05-11T03:06:05.276Z,13
2018-05-11T03:07:03.715Z,13
2018-05-11T03:08:04.112Z,13
2018-05-11T03:09:04.005Z,13
2018-05-11T03:10:03.442Z,13
2018-05-11T03:11:03.980Z,12.937
2018-05-11T03:12:04.055Z,13
2018-05-11T03:13:03.707Z,12.937
2018-05-11T03:14:04.170Z,12.937
2018-05-11T03:15:03.894Z,12.937
2018-05-11T03:16:04.297Z,12.937
2018-05-11T03:17:03.867Z,12.875
2018-05-11T03:18:03.501Z,12.875
2018-05-11T03:19:03.968Z,12.875
2018-05-11T03:20:03.321Z,12.937
2018-05-11T03:21:03.848Z,12.812
2018-05-11T03:22:04.269Z,12.875
2018-05-11T03:23:03.769Z,12.875
2018-05-11T03:24:03.317Z,12.812
2018-05-11T03:25:03.816Z,12.812
2018-05-11T03:26:04.432Z,12.812
2018-05-11T03:27:04.074Z,12.812
2018-05-11T03:28:03.519Z,12.812
2018-05-11T03:29:03.930Z,12.75
2018-05-11T03:30:03.493Z,12.75
2018-05-11T03:31:03.896Z,12.75
2018-05-11T03:32:03.334Z,12.687
2018-05-11T03:33:03.767Z,12.687
2018-05-11T03:34:04.274Z,12.687
2018-05-11T03:35:03.892Z,12.687
2018-05-11T03:36:03.906Z,12.687
2018-05-11T03:37:04.038Z,12.687
2018-05-11T03:38:04.244Z,12.687
2018-05-11T03:39:04.220Z,12.687
2018-05-11T03:40:03.655Z,12.687
2018-05-11T03:41:05.101Z,12.687
2018-05-11T03:42:03.918Z,12.687
2018-05-11T03:43:03.473Z,12.687
2018-05-11T03:44:04.278Z,12.687
2018-05-11T03:45:03.669Z,12.687
2018-05-11T03:46:04.108Z,12.687
2018-05-11T03:47:03.616Z,12.625
2018-05-11T03:48:04.101Z,12.625
2018-05-11T03:49:03.386Z,12.625
2018-05-11T03:50:04.216Z,12.625
2018-05-11T03:51:04.877Z,12.625
2018-05-11T03:52:04.019Z,12.625
2018-05-11T03:53:03.284Z,12.625
2018-05-11T03:54:03.661Z,12.625
2018-05-11T03:55:04.294Z,12.625
2018-05-11T03:56:03.765Z,12.625
2018-05-11T03:57:03.320Z,12.625
2018-05-11T03:58:04.145Z,12.562
2018-05-11T03:59:03.599Z,12.625
2018-05-11T04:00:04.271Z,12.625
2018-05-11T04:01:04.340Z,12.687
2018-05-11T04:02:03.587Z,12.687
2018-05-11T04:03:03.935Z,12.687
2018-05-11T04:04:03.874Z,12.625
2018-05-11T04:05:04.307Z,12.625
2018-05-11T04:06:03.695Z,12.687
2018-05-11T04:07:04.327Z,12.687
2018-05-11T04:08:03.802Z,12.625
2018-05-11T04:09:03.710Z,12.625
2018-05-11T04:10:03.584Z,12.625
2018-05-11T04:11:03.954Z,12.625
2018-05-11T04:12:04.210Z,12.625
2018-05-11T04:13:03.407Z,12.625
2018-05-11T04:14:03.751Z,12.625
2018-05-11T04:15:03.751Z,12.625
2018-05-11T04:16:04.296Z,12.625
2018-05-11T04:17:03.812Z,12.625
2018-05-11T04:18:04.126Z,12.625
2018-05-11T04:19:03.685Z,12.625
2018-05-11T04:20:04.426Z,12.687
2018-05-11T04:21:03.844Z,12.687
2018-05-11T04:22:03.911Z,12.687
2018-05-11T04:23:04.034Z,12.687
2018-05-11T04:24:03.570Z,12.687
2018-05-11T04:25:05.729Z,12.625
2018-05-11T04:26:04.070Z,12.687
2018-05-11T04:27:03.820Z,12.625
2018-05-11T04:28:03.440Z,12.625
2018-05-11T04:29:03.936Z,12.562
2018-05-11T04:30:03.381Z,12.625
2018-05-11T04:31:03.540Z,12.625
2018-05-11T04:32:04.069Z,12.625
2018-05-11T04:33:03.514Z,12.625
2018-05-11T04:34:03.684Z,12.625
2018-05-11T04:35:04.135Z,12.562
2018-05-11T04:36:03.544Z,12.562
2018-05-11T04:37:03.537Z,12.625
2018-05-11T04:38:03.987Z,12.625
2018-05-11T04:39:03.679Z,12.562
2018-05-11T04:40:03.688Z,12.562
2018-05-11T04:41:03.355Z,12.625
2018-05-11T04:42:03.942Z,12.625
2018-05-11T04:43:03.613Z,12.687
2018-05-11T04:44:04.139Z,12.625
2018-05-11T04:45:03.666Z,12.687
2018-05-11T04:46:04.237Z,12.687
2018-05-11T04:47:03.360Z,12.75
2018-05-11T04:48:03.282Z,12.75
2018-05-11T04:49:04.644Z,12.75
2018-05-11T04:50:03.860Z,12.687
2018-05-11T04:51:03.962Z,12.687
2018-05-11T04:52:04.116Z,12.687
2018-05-11T04:53:03.665Z,12.687
2018-05-11T04:54:04.322Z,12.687
2018-05-11T04:55:03.568Z,12.687
2018-05-11T04:56:04.070Z,12.75
2018-05-11T04:57:03.367Z,12.75
2018-05-11T04:58:03.949Z,12.812
2018-05-11T04:59:03.281Z,12.875
2018-05-11T05:00:04.189Z,12.875
2018-05-11T05:01:04.886Z,12.937
2018-05-11T05:02:03.764Z,13
2018-05-11T05:03:04.092Z,13
2018-05-11T05:04:03.529Z,13
2018-05-11T05:05:03.873Z,13
2018-05-11T05:06:04.891Z,12.937
2018-05-11T05:07:04.363Z,13
2018-05-11T05:08:03.914Z,13.062
2018-05-11T05:09:04.034Z,13.125
2018-05-11T05:10:03.618Z,13.25
2018-05-11T05:11:04.025Z,13.25
2018-05-11T05:12:04.109Z,13.312
2018-05-11T05:13:03.408Z,13.375
2018-05-11T05:14:03.899Z,13.312
2018-05-11T05:15:03.614Z,13.312
2018-05-11T05:16:04.200Z,13.312
2018-05-11T05:17:03.871Z,13.375
2018-05-11T05:18:04.022Z,13.375
2018-05-11T05:19:03.648Z,13.437
2018-05-11T05:20:05.274Z,13.437
2018-05-11T05:21:03.588Z,13.437
2018-05-11T05:22:03.671Z,13.5
2018-05-11T05:23:03.813Z,13.5
2018-05-11T05:24:03.709Z,13.5
2018-05-11T05:25:04.185Z,13.562
2018-05-11T05:26:03.837Z,13.562
2018-05-11T05:27:04.215Z,13.562
2018-05-11T05:28:03.934Z,13.562
2018-05-11T05:29:03.342Z,13.562
2018-05-11T05:30:04.161Z,13.562
2018-05-11T05:31:03.578Z,13.625
2018-05-11T05:32:04.134Z,13.625
2018-05-11T05:33:03.793Z,13.562
2018-05-11T05:34:03.881Z,13.562
2018-05-11T05:35:03.891Z,13.562
2018-05-11T05:36:04.110Z,13.437
2018-05-11T05:37:03.552Z,13.375
2018-05-11T05:38:03.766Z,13.312
2018-05-11T05:39:03.844Z,13.312
2018-05-11T05:40:03.699Z,13.312
2018-05-11T05:41:04.573Z,13.25
2018-05-11T05:42:03.546Z,13.187
2018-05-11T05:43:03.934Z,13.25
2018-05-11T05:44:04.226Z,13.25
2018-05-11T05:45:03.955Z,13.25
2018-05-11T05:46:03.473Z,13.312
2018-05-11T05:47:03.548Z,13.437
2018-05-11T05:48:04.042Z,13.5
2018-05-11T05:49:03.726Z,13.5
2018-05-11T05:50:04.222Z,13.562
2018-05-11T05:51:03.849Z,13.5
2018-05-11T05:52:03.475Z,13.562
2018-05-11T05:53:04.094Z,13.562
2018-05-11T05:54:03.419Z,13.562
2018-05-11T05:55:04.087Z,13.625
2018-05-11T05:56:04.589Z,13.687
2018-05-11T05:57:03.883Z,13.75
2018-05-11T05:58:03.422Z,13.812
2018-05-11T05:59:03.676Z,13.75
2018-05-11T06:00:09.460Z,13.562
2018-05-11T06:01:04.036Z,13.625
2018-05-11T06:02:03.615Z,13.625
2018-05-11T06:03:03.488Z,13.625
2018-05-11T06:04:03.910Z,13.625
2018-05-11T06:05:03.495Z,13.625
2018-05-11T06:06:04.665Z,13.625
2018-05-11T06:07:03.899Z,13.687
2018-05-11T06:08:03.329Z,13.562
2018-05-11T06:09:04.489Z,13.625
2018-05-11T06:10:04.212Z,13.625
2018-05-11T06:11:03.897Z,13.687
2018-05-11T06:12:03.540Z,13.687
2018-05-11T06:13:04.077Z,13.687
2018-05-11T06:14:03.498Z,13.812
2018-05-11T06:15:04.336Z,13.812
2018-05-11T06:16:04.509Z,13.812
2018-05-11T06:17:03.975Z,13.875
2018-05-11T06:18:03.477Z,13.937
2018-05-11T06:19:03.961Z,14
2018-05-11T06:20:03.493Z,13.937
2018-05-11T06:21:04.046Z,13.937
2018-05-11T06:22:03.700Z,14
2018-05-11T06:23:03.732Z,14
2018-05-11T06:24:04.226Z,13.937
2018-05-11T06:25:03.777Z,14
2018-05-11T06:26:03.560Z,14
2018-05-11T06:27:04.214Z,14.062
2018-05-11T06:28:03.682Z,14.187
2018-05-11T06:29:04.219Z,14.312
2018-05-11T06:30:03.791Z,14.375
2018-05-11T06:31:03.534Z,14.312
2018-05-11T06:32:04.161Z,14.312
2018-05-11T06:33:03.505Z,14.375
2018-05-11T06:34:04.066Z,14.312
2018-05-11T06:35:03.744Z,14.312
2018-05-11T06:36:04.672Z,14.187
2018-05-11T06:37:04.192Z,14.125
2018-05-11T06:38:03.770Z,14.125
2018-05-11T06:39:04.640Z,14.062
2018-05-11T06:40:04.192Z,14.062
2018-05-11T06:41:03.599Z,14.062
2018-05-11T06:42:03.651Z,14.062
2018-05-11T06:43:04.289Z,13.937
2018-05-11T06:44:03.893Z,13.875
2018-05-11T06:45:03.452Z,13.937
2018-05-11T06:46:04.276Z,13.875
2018-05-11T06:47:03.561Z,13.875
2018-05-11T06:48:03.919Z,13.937
2018-05-11T06:49:03.913Z,14
2018-05-11T06:50:03.836Z,14.062
2018-05-11T06:51:04.020Z,14.062
2018-05-11T06:52:03.458Z,14.062
2018-05-11T06:53:03.890Z,14.125
2018-05-11T06:54:03.363Z,14.187
2018-05-11T06:55:04.268Z,14.25
2018-05-11T06:56:03.697Z,14.187
2018-05-11T06:57:03.967Z,14.187
2018-05-11T06:58:03.510Z,14.187
2018-05-11T06:59:04.043Z,14.125
2018-05-11T07:00:04.040Z,14.062
2018-05-11T07:01:04.933Z,14
2018-05-11T07:02:04.069Z,14
2018-05-11T07:03:03.546Z,14.125
2018-05-11T07:04:03.992Z,14.125
2018-05-11T07:05:03.654Z,14.187
2018-05-11T07:06:04.015Z,14.25
2018-05-11T07:07:03.462Z,14.375
2018-05-11T07:08:04.001Z,14.437
2018-05-11T07:09:04.260Z,14.25
2018-05-11T07:10:03.990Z,14.062
2018-05-11T07:11:03.640Z,14.062
2018-05-11T07:12:04.207Z,14.187
2018-05-11T07:13:03.588Z,14.375
2018-05-11T07:14:03.471Z,14.5
2018-05-11T07:15:03.987Z,14.625
2018-05-11T07:16:03.373Z,14.75
2018-05-11T07:17:03.908Z,14.562
2018-05-11T07:18:03.463Z,14.625
2018-05-11T07:19:03.972Z,14.75
2018-05-11T07:20:03.525Z,14.75
2018-05-11T07:21:04.302Z,14.812
2018-05-11T07:22:03.917Z,14.875
2018-05-11T07:23:04.372Z,15
2018-05-11T07:24:03.750Z,15
2018-05-11T07:25:03.376Z,15.125
2018-05-11T07:26:04.328Z,15.187
2018-05-11T07:27:03.897Z,15.25
2018-05-11T07:28:03.767Z,15.312
2018-05-11T07:29:04.121Z,15.312
2018-05-11T07:30:04.006Z,15.125
2018-05-11T07:31:04.031Z,15.187
2018-05-11T07:32:04.132Z,15.187
2018-05-11T07:33:03.823Z,15.125
2018-05-11T07:34:04.275Z,15.25
2018-05-11T07:35:03.808Z,15.375
2018-05-11T07:36:04.730Z,15.437
2018-05-11T07:37:04.110Z,15.375
2018-05-11T07:38:04.025Z,15.312
2018-05-11T07:39:04.012Z,15.125
2018-05-11T07:40:03.795Z,15.187
2018-05-11T07:41:03.365Z,15.125
2018-05-11T07:42:03.880Z,15.125
2018-05-11T07:43:03.373Z,15.25
2018-05-11T07:44:03.782Z,15.312
2018-05-11T07:45:04.276Z,15.437
2018-05-11T07:46:04.943Z,15.5
2018-05-11T07:47:04.210Z,15.375
2018-05-11T07:48:03.901Z,15.375
2018-05-11T07:49:03.509Z,15.437
2018-05-11T07:50:04.263Z,15.5
2018-05-11T07:51:03.766Z,15.562
2018-05-11T07:52:03.692Z,15.687
2018-05-11T07:53:04.318Z,15.687
2018-05-11T07:54:03.764Z,15.5
2018-05-11T07:55:03.407Z,15.375
2018-05-11T07:56:04.570Z,15.437
2018-05-11T07:57:03.978Z,15.312
2018-05-11T07:58:03.440Z,15.375
2018-05-11T07:59:03.860Z,15.25
2018-05-11T08:00:04.460Z,15.375
2018-05-11T08:01:03.852Z,15.312
2018-05-11T08:02:03.540Z,15.25
2018-05-11T08:03:03.947Z,15.187
2018-05-11T08:04:03.569Z,15.187
2018-05-11T08:05:04.001Z,15.25
2018-05-11T08:06:03.778Z,15.375
2018-05-11T08:07:04.155Z,15.562
2018-05-11T08:08:04.160Z,15.687
2018-05-11T08:09:03.864Z,15.875
2018-05-11T08:10:04.092Z,15.875
2018-05-11T08:11:03.310Z,15.875
2018-05-11T08:12:03.635Z,15.937
2018-05-11T08:13:04.132Z,16
2018-05-11T08:14:04.334Z,15.937
2018-05-11T08:15:03.746Z,16.125
2018-05-11T08:16:04.205Z,16.187
2018-05-11T08:17:03.704Z,16.375
2018-05-11T08:18:04.009Z,16.562
2018-05-11T08:19:03.912Z,16.75
2018-05-11T08:20:03.785Z,16.625
2018-05-11T08:21:06.050Z,16.937
2018-05-11T08:22:04.217Z,17
2018-05-11T08:23:03.634Z,17.125
2018-05-11T08:24:04.102Z,17.062
2018-05-11T08:25:03.634Z,16.812
2018-05-11T08:26:03.583Z,16.875
2018-05-11T08:27:04.085Z,17
2018-05-11T08:28:03.634Z,17.125
2018-05-11T08:29:03.834Z,17.125
2018-05-11T08:30:04.206Z,17.375
2018-05-11T08:31:03.757Z,17.625
2018-05-11T08:32:04.329Z,17.75
2018-05-11T08:33:03.658Z,18
2018-05-11T08:34:03.793Z,18.375
2018-05-11T08:35:04.044Z,18.312
2018-05-11T08:36:03.409Z,18.375
2018-05-11T08:37:03.900Z,18.375
2018-05-11T08:38:03.442Z,18.437
2018-05-11T08:39:04.199Z,18.437
2018-05-11T08:40:03.904Z,18.687
2018-05-11T08:41:03.473Z,18.812
2018-05-11T08:42:04.057Z,18.75
2018-05-11T08:43:03.688Z,18.812
2018-05-11T08:44:03.430Z,18.625
2018-05-11T08:45:04.118Z,18.437
2018-05-11T08:46:05.129Z,18.5
2018-05-11T08:47:03.549Z,18.687
2018-05-11T08:48:03.971Z,19.062
2018-05-11T08:49:03.580Z,19.25
2018-05-11T08:50:03.997Z,19.312
2018-05-11T08:51:03.603Z,19.125
2018-05-11T08:52:04.189Z,19.25
2018-05-11T08:53:03.966Z,19.437
2018-05-11T08:54:04.371Z,19.312
2018-05-11T08:55:03.733Z,19.312
2018-05-11T08:56:03.510Z,19.437
2018-05-11T08:57:04.087Z,19.437
2018-05-11T08:58:03.412Z,19.625
2018-05-11T08:59:03.866Z,19.875
2018-05-11T09:00:03.659Z,19.937
2018-05-11T09:01:04.617Z,19.937
2018-05-11T09:02:03.979Z,20.312
2018-05-11T09:03:03.455Z,20.312
2018-05-11T09:04:04.020Z,19.937
2018-05-11T09:05:03.543Z,19.812
2018-05-11T09:06:03.641Z,19.625
2018-05-11T09:07:04.085Z,19.562
2018-05-11T09:08:03.414Z,19.562
2018-05-11T09:09:04.103Z,19.5
2018-05-11T09:10:03.672Z,19.437
2018-05-11T09:11:04.666Z,19.625
2018-05-11T09:12:03.777Z,19.562
2018-05-11T09:13:04.121Z,19.562
2018-05-11T09:14:03.626Z,19.75
2018-05-11T09:15:04.170Z,19.875
2018-05-11T09:16:03.654Z,19.687
2018-05-11T09:17:03.703Z,19.625
2018-05-11T09:18:03.954Z,19.5
2018-05-11T09:19:03.553Z,19.375
2018-05-11T09:20:03.857Z,19.375
2018-05-11T09:21:04.263Z,19.312
2018-05-11T09:22:03.525Z,19.312
2018-05-11T09:23:03.937Z,19.375
2018-05-11T09:24:04.322Z,19.5
2018-05-11T09:25:03.935Z,19.562
2018-05-11T09:26:03.715Z,19.75
2018-05-11T09:27:03.749Z,19.75
2018-05-11T09:28:04.267Z,19.562
2018-05-11T09:29:03.761Z,19.437
2018-05-11T09:30:03.732Z,19.312
2018-05-11T09:31:03.630Z,19.187
2018-05-11T09:32:03.949Z,19.187
2018-05-11T09:33:03.818Z,19.25
2018-05-11T09:34:04.173Z,19.5
2018-05-11T09:35:03.723Z,19.937
2018-05-11T09:36:04.193Z,20.375
2018-05-11T09:37:04.006Z,20.562
2018-05-11T09:38:04.307Z,20.562
2018-05-11T09:39:03.923Z,20.437
2018-05-11T09:40:03.687Z,20.562
2018-05-11T09:41:04.146Z,20.5
2018-05-11T09:42:03.562Z,20.375
2018-05-11T09:43:03.999Z,20.375
2018-05-11T09:44:03.561Z,20.312
2018-05-11T09:45:04.145Z,20.312
2018-05-11T09:46:04.624Z,20.437
2018-05-11T09:47:03.885Z,20.687
2018-05-11T09:48:03.299Z,20.75
2018-05-11T09:49:03.625Z,20.625
2018-05-11T09:50:04.112Z,21.062
2018-05-11T09:51:03.527Z,21.312
2018-05-11T09:52:03.785Z,21.5
2018-05-11T09:53:03.337Z,21.25
2018-05-11T09:54:03.898Z,21.187
2018-05-11T09:55:03.512Z,20.875
2018-05-11T09:56:04.202Z,21.062
2018-05-11T09:57:03.618Z,21.25
2018-05-11T09:58:03.921Z,21.437
2018-05-11T09:59:03.409Z,21.5
2018-05-11T10:00:04.183Z,21.687
2018-05-11T10:01:03.590Z,21.562
2018-05-11T10:02:03.476Z,21.5
2018-05-11T10:03:04.260Z,21.375
2018-05-11T10:04:03.676Z,21.375
2018-05-11T10:05:04.078Z,21.312
2018-05-11T10:06:03.706Z,20.875
2018-05-11T10:07:03.952Z,20.75
2018-05-11T10:08:03.275Z,20.75
2018-05-11T10:09:03.977Z,20.687
2018-05-11T10:10:03.884Z,20.875
2018-05-11T10:11:04.816Z,20.812
2018-05-11T10:12:04.163Z,20.875
2018-05-11T10:13:03.790Z,20.875
2018-05-11T10:14:03.257Z,20.687
2018-05-11T10:15:03.750Z,20.437
2018-05-11T10:16:03.237Z,20.312
2018-05-11T10:17:04.106Z,20.312
2018-05-11T10:18:03.704Z,20.25
2018-05-11T10:19:04.036Z,20.437
2018-05-11T10:20:03.694Z,20.375
2018-05-11T10:21:05.135Z,20.375
2018-05-11T10:22:03.422Z,20.375
2018-05-11T10:23:03.989Z,20.25
2018-05-11T10:24:03.627Z,20.375
2018-05-11T10:25:03.921Z,20.375
2018-05-11T10:26:03.843Z,20.437
2018-05-11T10:27:03.462Z,20.187
2018-05-11T10:28:04.191Z,20.312
2018-05-11T10:29:04.157Z,20.375
2018-05-11T10:30:03.672Z,20.437
2018-05-11T10:31:03.460Z,20.625
2018-05-11T10:32:03.962Z,20.687
2018-05-11T10:33:04.252Z,20.687
2018-05-11T10:34:03.868Z,20.5
2018-05-11T10:35:03.934Z,20.437
2018-05-11T10:36:03.406Z,20.687
2018-05-11T10:37:04.009Z,20.687
2018-05-11T10:38:04.113Z,20.687
2018-05-11T10:39:04.424Z,20.75
2018-05-11T10:40:04.242Z,20.625
2018-05-11T10:41:06.535Z,20.875
2018-05-11T10:42:04.290Z,20.687
2018-05-11T10:43:04.521Z,20.437
2018-05-11T10:44:03.692Z,20.562
2018-05-11T10:45:03.786Z,20.5
2018-05-11T10:46:03.379Z,20.5
2018-05-11T10:47:03.626Z,20.625
2018-05-11T10:48:04.017Z,20.625
2018-05-11T10:49:03.511Z,20.812
2018-05-11T10:50:03.914Z,21.062
2018-05-11T10:51:03.571Z,21.312
2018-05-11T10:52:03.631Z,21.5
2018-05-11T10:53:04.101Z,21.75
2018-05-11T10:54:03.504Z,21.687
2018-05-11T10:55:04.039Z,21.75
2018-05-11T10:56:04.350Z,21.812
2018-05-11T10:57:04.335Z,22.062
2018-05-11T10:58:03.842Z,22.125
2018-05-11T10:59:04.378Z,22.187
2018-05-11T11:00:03.849Z,22.062
2018-05-11T11:01:03.310Z,21.937
2018-05-11T11:02:03.388Z,21.625
2018-05-11T11:03:03.839Z,21.562
2018-05-11T11:04:03.349Z,21.312
2018-05-11T11:05:03.906Z,21
2018-05-11T11:06:03.684Z,20.937
2018-05-11T11:07:03.953Z,21.125
2018-05-11T11:08:03.439Z,21.312
2018-05-11T11:09:04.328Z,21.375
2018-05-11T11:10:03.734Z,21.062
2018-05-11T11:11:03.859Z,21.062
2018-05-11T11:12:03.366Z,21.125
2018-05-11T11:13:03.880Z,21
2018-05-11T11:14:03.419Z,21.187
2018-05-11T11:15:04.199Z,21.25
2018-05-11T11:16:03.713Z,21.437
2018-05-11T11:17:04.482Z,21.562
2018-05-11T11:18:04.066Z,21.875
2018-05-11T11:19:03.582Z,22.125
2018-05-11T11:20:05.044Z,22.5
2018-05-11T11:21:03.866Z,22.812
2018-05-11T11:22:03.311Z,22.812
2018-05-11T11:23:03.868Z,23
2018-05-11T11:24:03.328Z,23.125
2018-05-11T11:25:03.642Z,23.125
2018-05-11T11:26:04.317Z,23.437
2018-05-11T11:27:03.796Z,23.625
2018-05-11T11:28:04.096Z,23.812
2018-05-11T11:29:03.570Z,24.125
2018-05-11T11:30:04.216Z,24.312
2018-05-11T11:31:03.446Z,24.187
2018-05-11T11:32:03.914Z,24.125
2018-05-11T11:33:03.383Z,23.875
2018-05-11T11:34:03.910Z,23.937
2018-05-11T11:35:03.336Z,23.687
2018-05-11T11:36:04.275Z,23.375
2018-05-11T11:37:03.921Z,23.312
2018-05-11T11:38:03.590Z,22.625
2018-05-11T11:39:04.745Z,22.437
2018-05-11T11:40:04.084Z,22.437
2018-05-11T11:41:03.596Z,22.687
2018-05-11T11:42:04.349Z,22.937
2018-05-11T11:43:03.889Z,23.125
2018-05-11T11:44:03.452Z,23.062
2018-05-11T11:45:03.954Z,23.062
2018-05-11T11:46:03.587Z,23.062
2018-05-11T11:47:04.151Z,22.937
2018-05-11T11:48:03.631Z,22.937
2018-05-11T11:49:04.084Z,22.75
2018-05-11T11:50:03.705Z,22.687
2018-05-11T11:51:04.858Z,22.75
2018-05-11T11:52:04.210Z,22.812
2018-05-11T11:53:03.707Z,22.687
2018-05-11T11:54:04.258Z,22.687
2018-05-11T11:55:03.677Z,22.687
2018-05-11T11:56:04.119Z,22.75
2018-05-11T11:57:03.544Z,22.875
2018-05-11T11:58:03.395Z,22.937
2018-05-11T11:59:03.673Z,23.062
2018-05-11T12:00:04.226Z,23
2018-05-11T12:01:04.254Z,22.875
2018-05-11T12:02:04.219Z,23.062
2018-05-11T12:03:03.826Z,23.062
2018-05-11T12:04:03.388Z,23.125
2018-05-11T12:05:03.843Z,23.125
2018-05-11T12:06:03.357Z,22.875
2018-05-11T12:07:03.497Z,23
2018-05-11T12:08:04.166Z,23.125
2018-05-11T12:09:04.554Z,23.25
2018-05-11T12:10:03.817Z,23.25
2018-05-11T12:11:03.665Z,23.312
2018-05-11T12:12:03.415Z,23.437
2018-05-11T12:13:03.843Z,23.687
2018-05-11T12:14:03.355Z,23.625
2018-05-11T12:15:03.899Z,23.75
2018-05-11T12:16:04.858Z,23.875
2018-05-11T12:17:04.072Z,24
2018-05-11T12:18:04.080Z,24.062
2018-05-11T12:19:03.587Z,24.125
2018-05-11T12:20:04.379Z,24.125
2018-05-11T12:21:03.722Z,24.062
2018-05-11T12:22:03.889Z,24.125
2018-05-11T12:23:03.356Z,24.312
2018-05-11T12:24:03.544Z,24.312
2018-05-11T12:25:04.045Z,24.437
2018-05-11T12:26:03.900Z,24.312
2018-05-11T12:27:03.977Z,23.875
2018-05-11T12:28:04.098Z,23.875
2018-05-11T12:29:03.580Z,23.687
2018-05-11T12:30:04.452Z,23.25
2018-05-11T12:31:03.705Z,23.125
2018-05-11T12:32:04.067Z,23.062
2018-05-11T12:33:03.626Z,23
2018-05-11T12:34:04.084Z,22.75
2018-05-11T12:35:03.918Z,22.5
2018-05-11T12:36:03.653Z,22.625
2018-05-11T12:37:04.018Z,22.687
2018-05-11T12:38:03.418Z,22.625
2018-05-11T12:39:04.278Z,22.75
2018-05-11T12:40:03.785Z,22.687